createdAt,value
2019-04-06T00:27:26.215Z,80.33
2019-04-06T00:27:26.774Z,80.33
2019-04-06T00:27:27.376Z,80.33
2019-04-06T00:27:27.974Z,80.90
2019-04-06T00:27:28.586Z,80.13
2019-04-06T00:27:29.174Z,80.13
2019-04-06T00:27:29.773Z,80.71
2019-04-06T00:27:30.374Z,80.23
2019-04-06T00:28:24.855Z,80.61
2019-04-06T00:28:25.455Z,80.71
2019-04-06T00:28:26.052Z,80.80
2019-04-06T00:28:26.651Z,80.80
2019-04-06T00:28:27.258Z,80.52
2019-04-06T00:28:27.850Z,80.80
2019-04-06T00:28:28.455Z,80.71
2019-04-06T00:28:29.052Z,80.61
2019-04-06T00:29:22.508Z,80.71
2019-04-06T00:29:23.106Z,80.61
2019-04-06T00:29:23.704Z,80.61
2019-04-06T00:29:24.305Z,80.61
2019-04-06T00:29:24.905Z,80.42
2019-04-06T00:29:25.512Z,80.61
2019-04-06T00:29:26.103Z,80.61
2019-04-06T00:29:26.731Z,80.80
2019-04-06T00:30:20.208Z,80.61
2019-04-06T00:30:20.757Z,80.90
2019-04-06T00:30:21.355Z,80.80
2019-04-06T00:30:21.956Z,80.61
2019-04-06T00:30:22.556Z,80.52
2019-04-06T00:30:23.156Z,80.61
2019-04-06T00:30:23.756Z,80.61
2019-04-06T00:30:24.365Z,80.61
2019-04-06T00:31:17.813Z,81.18
2019-04-06T00:31:18.411Z,81.09
2019-04-06T00:31:19.013Z,80.99
2019-04-06T00:31:19.609Z,80.80
2019-04-06T00:31:20.208Z,81.18
2019-04-06T00:31:20.807Z,81.09
2019-04-06T00:31:21.422Z,81.09
2019-04-06T00:31:22.008Z,81.18
2019-04-06T00:32:16.487Z,80.42
2019-04-06T00:32:17.083Z,80.80
2019-04-06T00:32:17.683Z,80.42
2019-04-06T00:32:18.289Z,80.61
2019-04-06T00:32:18.884Z,80.71
2019-04-06T00:32:19.484Z,80.52
2019-04-06T00:32:20.096Z,80.61
2019-04-06T00:32:20.690Z,80.42
2019-04-06T00:33:15.204Z,81.18
2019-04-06T00:33:15.761Z,80.99
2019-04-06T00:33:16.361Z,80.99
2019-04-06T00:33:16.960Z,81.18
2019-04-06T00:33:17.560Z,81.09
2019-04-06T00:33:18.159Z,81.09
2019-04-06T00:33:18.760Z,80.99
2019-04-06T00:33:19.359Z,81.18
2019-04-06T00:34:12.853Z,80.99
2019-04-06T00:34:13.414Z,80.99
2019-04-06T00:34:14.015Z,80.99
2019-04-06T00:34:14.614Z,81.28
2019-04-06T00:34:15.214Z,80.99
2019-04-06T00:34:15.814Z,80.99
2019-04-06T00:34:16.416Z,80.99
2019-04-06T00:34:17.014Z,80.99
2019-04-06T00:35:11.517Z,80.90
2019-04-06T00:35:12.089Z,80.90
2019-04-06T00:35:12.689Z,80.99
2019-04-06T00:35:13.288Z,81.09
2019-04-06T00:35:13.888Z,80.99
2019-04-06T00:35:14.495Z,81.09
2019-04-06T00:35:15.088Z,81.18
2019-04-06T00:35:15.689Z,81.28
2019-04-06T00:36:09.171Z,81.09
2019-04-06T00:36:09.744Z,81.09
2019-04-06T00:36:10.341Z,81.18
2019-04-06T00:36:10.944Z,81.18
2019-04-06T00:36:11.539Z,81.09
2019-04-06T00:36:12.141Z,81.18
2019-04-06T00:36:12.741Z,80.99
2019-04-06T00:36:13.341Z,80.99
2019-04-06T00:37:06.798Z,81.37
2019-04-06T00:37:07.447Z,80.80
2019-04-06T00:37:07.992Z,81.37
2019-04-06T00:37:08.594Z,81.66
2019-04-06T00:37:09.191Z,80.61
2019-04-06T00:37:09.799Z,81.37
2019-04-06T00:37:10.392Z,81.37
2019-04-06T00:37:10.991Z,81.66
2019-04-06T00:38:04.449Z,81.18
2019-04-06T00:38:05.088Z,81.37
2019-04-06T00:38:05.647Z,81.47
2019-04-06T00:38:06.245Z,81.47
2019-04-06T00:38:06.847Z,81.28
2019-04-06T00:38:07.445Z,81.37
2019-04-06T00:38:08.044Z,81.18
2019-04-06T00:38:08.644Z,81.18
2019-04-06T00:39:03.123Z,81.37
2019-04-06T00:39:03.745Z,81.66
2019-04-06T00:39:04.320Z,80.52
2019-04-06T00:39:04.920Z,80.80
2019-04-06T00:39:05.520Z,80.99
2019-04-06T00:39:06.119Z,81.37
2019-04-06T00:39:06.748Z,80.52
2019-04-06T00:39:07.319Z,80.52
2019-04-06T00:40:01.825Z,80.99
2019-04-06T00:40:02.397Z,80.99
2019-04-06T00:40:02.995Z,81.09
2019-04-06T00:40:03.595Z,81.18
2019-04-06T00:40:04.196Z,81.18
2019-04-06T00:40:04.794Z,81.18
2019-04-06T00:40:05.393Z,81.18
2019-04-06T00:40:05.995Z,81.18
2019-04-06T00:41:00.475Z,81.37
2019-04-06T00:41:01.071Z,81.28
2019-04-06T00:41:01.670Z,81.37
2019-04-06T00:41:02.271Z,81.37
2019-04-06T00:41:02.871Z,81.37
2019-04-06T00:41:03.470Z,81.28
2019-04-06T00:41:04.070Z,81.37
2019-04-06T00:41:04.676Z,81.18
2019-04-06T00:41:58.132Z,81.18
2019-04-06T00:41:58.725Z,81.18
2019-04-06T00:41:59.324Z,81.37
2019-04-06T00:41:59.923Z,81.76
2019-04-06T00:42:00.582Z,81.56
2019-04-06T00:42:01.123Z,81.76
2019-04-06T00:42:01.724Z,81.47
2019-04-06T00:42:02.324Z,81.66
2019-04-06T00:42:55.779Z,81.37
2019-04-06T00:42:56.377Z,81.41
2019-04-06T00:42:56.981Z,81.28
2019-04-06T00:42:57.574Z,81.37
2019-04-06T00:42:58.204Z,81.56
2019-04-06T00:42:58.774Z,81.76
2019-04-06T00:42:59.375Z,81.37
2019-04-06T00:42:59.975Z,81.56
2019-04-06T00:43:54.455Z,81.09
2019-04-06T00:43:55.050Z,81.18
2019-04-06T00:43:55.653Z,81.09
2019-04-06T00:43:56.250Z,80.99
2019-04-06T00:43:56.850Z,81.18
2019-04-06T00:43:57.451Z,81.28
2019-04-06T00:43:58.060Z,81.18
2019-04-06T00:43:58.650Z,80.99
2019-04-06T00:44:53.128Z,81.41
2019-04-06T00:44:53.727Z,81.70
2019-04-06T00:44:54.356Z,81.32
2019-04-06T00:44:54.926Z,81.60
2019-04-06T00:44:55.526Z,81.37
2019-04-06T00:44:56.133Z,81.51
2019-04-06T00:44:56.726Z,81.41
2019-04-06T00:44:57.328Z,81.23
2019-04-06T00:45:51.829Z,81.79
2019-04-06T00:45:52.402Z,81.70
2019-04-06T00:45:53.000Z,81.76
2019-04-06T00:45:53.602Z,81.79
2019-04-06T00:45:54.201Z,81.79
2019-04-06T00:45:54.803Z,81.79
2019-04-06T00:45:55.400Z,81.79
2019-04-06T00:45:56.010Z,81.79
2019-04-06T00:46:50.481Z,82.37
2019-04-06T00:46:51.085Z,82.56
2019-04-06T00:46:51.684Z,82.56
2019-04-06T00:46:52.295Z,82.65
2019-04-06T00:46:52.876Z,82.65
2019-04-06T00:46:53.478Z,82.46
2019-04-06T00:46:54.076Z,82.56
2019-04-06T00:46:54.675Z,82.46
2019-04-06T00:47:48.145Z,83.70
2019-04-06T00:47:48.734Z,83.70
2019-04-06T00:47:49.328Z,83.70
2019-04-06T00:47:49.929Z,83.61
2019-04-06T00:47:50.534Z,83.70
2019-04-06T00:47:51.129Z,83.70
2019-04-06T00:47:51.736Z,83.70
2019-04-06T00:47:52.329Z,83.22
2019-04-06T00:48:45.785Z,84.36
2019-04-06T00:48:46.382Z,84.27
2019-04-06T00:48:46.982Z,84.27
2019-04-06T00:48:47.582Z,84.27
2019-04-06T00:48:48.288Z,84.46
2019-04-06T00:48:48.784Z,84.46
2019-04-06T00:48:49.386Z,84.46
2019-04-06T00:48:49.982Z,84.46
2019-04-06T00:49:43.440Z,83.89
2019-04-06T00:49:44.033Z,84.08
2019-04-06T00:49:44.640Z,84.27
2019-04-06T00:49:45.236Z,84.08
2019-04-06T00:49:45.836Z,83.98
2019-04-06T00:49:46.433Z,84.27
2019-04-06T00:49:47.033Z,83.98
2019-04-06T00:49:47.633Z,84.08
2019-04-06T00:50:41.113Z,84.36
2019-04-06T00:50:41.686Z,84.27
2019-04-06T00:50:42.294Z,84.56
2019-04-06T00:50:42.889Z,84.36
2019-04-06T00:50:43.491Z,84.36
2019-04-06T00:50:44.088Z,84.46
2019-04-06T00:50:44.685Z,84.27
2019-04-06T00:50:45.285Z,84.36
2019-04-06T00:51:39.764Z,85.03
2019-04-06T00:51:40.362Z,84.94
2019-04-06T00:51:40.963Z,84.36
2019-04-06T00:51:41.560Z,84.94
2019-04-06T00:51:42.162Z,84.65
2019-04-06T00:51:42.759Z,84.84
2019-04-06T00:51:43.359Z,84.56
2019-04-06T00:51:44.012Z,84.56
2019-04-06T00:52:37.442Z,85.13
2019-04-06T00:52:38.014Z,84.94
2019-04-06T00:52:38.614Z,84.94
2019-04-06T00:52:39.213Z,85.03
2019-04-06T00:52:39.813Z,85.13
2019-04-06T00:52:40.415Z,84.94
2019-04-06T00:52:41.014Z,84.94
2019-04-06T00:52:41.633Z,84.94
2019-04-06T00:53:35.067Z,85.03
2019-04-06T00:53:35.668Z,85.03
2019-04-06T00:53:36.266Z,84.94
2019-04-06T00:53:36.880Z,85.13
2019-04-06T00:53:37.464Z,85.13
2019-04-06T00:53:38.068Z,85.13
2019-04-06T00:53:38.666Z,85.13
2019-04-06T00:53:39.264Z,85.13
2019-04-06T00:54:32.721Z,86.46
2019-04-06T00:54:33.317Z,86.46
2019-04-06T00:54:33.915Z,86.27
2019-04-06T00:54:34.515Z,86.27
2019-04-06T00:54:35.116Z,86.27
2019-04-06T00:54:35.716Z,86.27
2019-04-06T00:54:36.350Z,86.36
2019-04-06T00:54:36.915Z,86.36
2019-04-06T00:55:30.405Z,86.46
2019-04-06T00:55:30.969Z,86.65
2019-04-06T00:55:31.575Z,86.55
2019-04-06T00:55:32.168Z,86.55
2019-04-06T00:55:32.770Z,86.46
2019-04-06T00:55:33.369Z,86.46
2019-04-06T00:55:33.968Z,86.75
2019-04-06T00:55:34.569Z,86.94
2019-04-06T00:56:29.053Z,86.84
2019-04-06T00:56:29.645Z,86.84
2019-04-06T00:56:30.243Z,86.94
2019-04-06T00:56:30.843Z,87.13
2019-04-06T00:56:31.443Z,86.94
2019-04-06T00:56:32.043Z,86.94
2019-04-06T00:56:32.666Z,87.03
2019-04-06T00:56:33.244Z,86.94
2019-04-06T00:57:26.699Z,87.51
2019-04-06T00:57:27.296Z,87.32
2019-04-06T00:57:27.898Z,87.51
2019-04-06T00:57:28.495Z,87.41
2019-04-06T00:57:29.135Z,87.41
2019-04-06T00:57:29.695Z,87.51
2019-04-06T00:57:30.295Z,87.51
2019-04-06T00:57:30.898Z,87.41
2019-04-06T00:58:25.374Z,87.41
2019-04-06T00:58:25.973Z,87.32
2019-04-06T00:58:26.617Z,87.32
2019-04-06T00:58:27.173Z,87.41
2019-04-06T00:58:27.801Z,87.41
2019-04-06T00:58:28.371Z,87.32
2019-04-06T00:58:28.972Z,87.41
2019-04-06T00:58:29.571Z,87.32
2019-04-06T00:59:23.027Z,87.41
2019-04-06T00:59:23.625Z,87.41
2019-04-06T00:59:24.225Z,87.23
2019-04-06T00:59:24.824Z,87.41
2019-04-06T00:59:25.423Z,87.23
2019-04-06T00:59:26.030Z,87.41
2019-04-06T00:59:26.624Z,87.32
2019-04-06T00:59:27.221Z,87.03
2019-04-06T01:00:20.681Z,87.51
2019-04-06T01:00:21.275Z,87.41
2019-04-06T01:00:21.874Z,87.32
2019-04-06T01:00:22.477Z,87.23
2019-04-06T01:00:23.072Z,87.13
2019-04-06T01:00:23.673Z,87.23
2019-04-06T01:00:24.272Z,87.41
2019-04-06T01:00:24.872Z,87.23
2019-04-06T01:01:19.387Z,87.23
2019-04-06T01:01:19.952Z,87.23
2019-04-06T01:01:20.559Z,87.70
2019-04-06T01:01:21.151Z,87.79
2019-04-06T01:01:21.749Z,87.41
2019-04-06T01:01:22.352Z,87.60
2019-04-06T01:01:22.952Z,87.98
2019-04-06T01:01:23.555Z,87.89
2019-04-06T01:02:18.029Z,88.37
2019-04-06T01:02:18.629Z,88.46
2019-04-06T01:02:19.224Z,88.27
2019-04-06T01:02:19.826Z,88.37
2019-04-06T01:02:20.426Z,88.37
2019-04-06T01:02:21.025Z,88.18
2019-04-06T01:02:21.625Z,88.37
2019-04-06T01:02:22.228Z,88.46
2019-04-06T01:03:15.681Z,89.70
2019-04-06T01:03:16.278Z,89.61
2019-04-06T01:03:16.879Z,89.22
2019-04-06T01:03:17.477Z,89.41
2019-04-06T01:03:18.078Z,89.41
2019-04-06T01:03:18.677Z,88.93
2019-04-06T01:03:19.278Z,88.93
2019-04-06T01:03:19.878Z,88.93
2019-04-06T01:04:13.335Z,89.61
2019-04-06T01:04:13.929Z,89.51
2019-04-06T01:04:14.529Z,89.61
2019-04-06T01:04:15.131Z,89.41
2019-04-06T01:04:15.729Z,89.51
2019-04-06T01:04:16.333Z,89.61
2019-04-06T01:04:16.930Z,89.79
2019-04-06T01:04:17.529Z,89.79
2019-04-06T01:05:12.009Z,90.17
2019-04-06T01:05:12.605Z,90.36
2019-04-06T01:05:13.211Z,90.56
2019-04-06T01:05:13.806Z,90.27
2019-04-06T01:05:14.405Z,90.27
2019-04-06T01:05:15.004Z,90.27
2019-04-06T01:05:15.612Z,90.17
2019-04-06T01:05:16.247Z,90.36
2019-04-06T01:06:10.687Z,91.41
2019-04-06T01:06:11.280Z,91.60
2019-04-06T01:06:11.880Z,91.60
2019-04-06T01:06:12.520Z,91.60
2019-04-06T01:06:13.078Z,91.31
2019-04-06T01:06:13.677Z,91.31
2019-04-06T01:06:14.284Z,91.60
2019-04-06T01:06:14.878Z,91.31
2019-04-06T01:07:08.412Z,91.31
2019-04-06T01:07:08.936Z,91.31
2019-04-06T01:07:09.533Z,91.41
2019-04-06T01:07:10.132Z,91.41
2019-04-06T01:07:10.733Z,91.31
2019-04-06T01:07:11.333Z,91.22
2019-04-06T01:07:12.020Z,91.31
2019-04-06T01:07:12.532Z,91.22
2019-04-06T01:08:05.989Z,91.22
2019-04-06T01:08:06.588Z,91.13
2019-04-06T01:08:07.184Z,91.31
2019-04-06T01:08:07.785Z,91.51
2019-04-06T01:08:08.385Z,91.31
2019-04-06T01:08:08.986Z,91.31
2019-04-06T01:08:09.590Z,91.31
2019-04-06T01:08:10.186Z,91.70
2019-04-06T01:09:03.647Z,91.51
2019-04-06T01:09:04.239Z,91.51
2019-04-06T01:09:04.836Z,91.31
2019-04-06T01:09:05.436Z,91.41
2019-04-06T01:09:06.036Z,91.31
2019-04-06T01:09:06.644Z,91.51
2019-04-06T01:09:07.238Z,91.31
2019-04-06T01:09:07.836Z,91.41
2019-04-06T01:10:02.315Z,91.03
2019-04-06T01:10:02.914Z,90.94
2019-04-06T01:10:03.512Z,91.03
2019-04-06T01:10:04.181Z,91.03
2019-04-06T01:10:04.713Z,91.03
2019-04-06T01:10:05.309Z,90.94
2019-04-06T01:10:05.909Z,90.56
2019-04-06T01:10:06.510Z,91.03
2019-04-06T01:10:59.967Z,91.03
2019-04-06T01:11:00.575Z,90.75
2019-04-06T01:11:01.164Z,90.94
2019-04-06T01:11:01.780Z,91.03
2019-04-06T01:11:02.363Z,90.84
2019-04-06T01:11:02.969Z,91.03
2019-04-06T01:11:03.575Z,90.94
2019-04-06T01:11:04.166Z,90.94
2019-04-06T01:11:57.645Z,91.41
2019-04-06T01:11:58.216Z,91.31
2019-04-06T01:11:58.815Z,91.22
2019-04-06T01:11:59.416Z,91.31
2019-04-06T01:12:00.017Z,91.13
2019-04-06T01:12:00.616Z,91.22
2019-04-06T01:12:01.252Z,91.41
2019-04-06T01:12:01.820Z,91.22
2019-04-06T01:12:55.271Z,92.08
2019-04-06T01:12:55.869Z,91.99
2019-04-06T01:12:56.468Z,91.99
2019-04-06T01:12:57.067Z,91.99
2019-04-06T01:12:57.682Z,92.08
2019-04-06T01:12:58.274Z,91.99
2019-04-06T01:12:58.867Z,91.99
2019-04-06T01:12:59.466Z,91.89
2019-04-06T01:13:53.968Z,92.27
2019-04-06T01:13:54.540Z,92.27
2019-04-06T01:13:55.172Z,92.27
2019-04-06T01:13:55.740Z,92.32
2019-04-06T01:13:56.341Z,92.18
2019-04-06T01:13:56.940Z,92.46
2019-04-06T01:13:57.539Z,92.46
2019-04-06T01:13:58.140Z,92.18
2019-04-06T01:14:51.601Z,92.94
2019-04-06T01:14:52.197Z,92.94
2019-04-06T01:14:52.795Z,92.08
2019-04-06T01:14:53.401Z,92.94
2019-04-06T01:14:53.995Z,92.08
2019-04-06T01:14:54.594Z,92.84
2019-04-06T01:14:55.195Z,92.18
2019-04-06T01:14:55.846Z,92.27
2019-04-06T01:15:50.273Z,92.94
2019-04-06T01:15:50.870Z,92.65
2019-04-06T01:15:51.470Z,92.74
2019-04-06T01:15:52.072Z,92.84
2019-04-06T01:15:52.679Z,92.74
2019-04-06T01:15:53.269Z,92.65
2019-04-06T01:15:53.870Z,92.65
2019-04-06T01:15:54.472Z,92.79
2019-04-06T01:16:47.925Z,93.60
2019-04-06T01:16:48.524Z,93.46
2019-04-06T01:16:49.122Z,93.27
2019-04-06T01:16:49.722Z,93.32
2019-04-06T01:16:50.322Z,93.32
2019-04-06T01:16:50.922Z,93.51
2019-04-06T01:16:51.522Z,93.60
2019-04-06T01:16:52.121Z,93.32
2019-04-06T01:17:45.601Z,93.41
2019-04-06T01:17:46.176Z,93.32
2019-04-06T01:17:46.775Z,93.51
2019-04-06T01:17:47.374Z,93.60
2019-04-06T01:17:47.974Z,93.51
2019-04-06T01:17:48.579Z,93.60
2019-04-06T01:17:49.175Z,93.70
2019-04-06T01:17:49.782Z,93.32
2019-04-06T01:18:43.229Z,93.41
2019-04-06T01:18:43.831Z,93.27
2019-04-06T01:18:44.426Z,93.41
2019-04-06T01:18:45.026Z,93.41
2019-04-06T01:18:45.625Z,93.41
2019-04-06T01:18:46.226Z,93.32
2019-04-06T01:18:46.827Z,93.41
2019-04-06T01:18:47.425Z,93.41
2019-04-06T01:19:41.910Z,94.27
2019-04-06T01:19:42.513Z,93.98
2019-04-06T01:19:43.101Z,94.27
2019-04-06T01:19:43.710Z,94.27
2019-04-06T01:19:44.301Z,93.79
2019-04-06T01:19:44.902Z,94.17
2019-04-06T01:19:45.509Z,94.27
2019-04-06T01:19:46.111Z,93.79
2019-04-06T01:20:39.559Z,94.74
2019-04-06T01:20:40.154Z,94.74
2019-04-06T01:20:40.753Z,94.74
2019-04-06T01:20:41.353Z,94.74
2019-04-06T01:20:41.953Z,94.46
2019-04-06T01:20:42.555Z,94.46
2019-04-06T01:20:43.228Z,94.93
2019-04-06T01:20:43.757Z,94.46
2019-04-06T01:21:38.232Z,94.56
2019-04-06T01:21:38.830Z,94.37
2019-04-06T01:21:39.432Z,94.74
2019-04-06T01:21:40.028Z,94.70
2019-04-06T01:21:40.650Z,94.65
2019-04-06T01:21:41.230Z,94.60
2019-04-06T01:21:41.863Z,94.65
2019-04-06T01:21:42.428Z,94.65
2019-04-06T01:22:36.931Z,94.37
2019-04-06T01:22:37.505Z,94.37
2019-04-06T01:22:38.104Z,94.74
2019-04-06T01:22:38.704Z,94.70
2019-04-06T01:22:39.347Z,94.74
2019-04-06T01:22:39.905Z,94.74
2019-04-06T01:22:40.510Z,94.74
2019-04-06T01:22:41.106Z,94.84
2019-04-06T01:23:34.560Z,94.65
2019-04-06T01:23:35.157Z,94.65
2019-04-06T01:23:35.760Z,94.56
2019-04-06T01:23:36.358Z,94.56
2019-04-06T01:23:36.975Z,94.37
2019-04-06T01:23:37.558Z,94.65
2019-04-06T01:23:38.157Z,94.84
2019-04-06T01:23:38.756Z,94.56
2019-04-06T01:24:32.273Z,94.93
2019-04-06T01:24:32.810Z,95.51
2019-04-06T01:24:33.410Z,95.51
2019-04-06T01:24:34.014Z,95.03
2019-04-06T01:24:34.611Z,95.60
2019-04-06T01:24:35.213Z,95.56
2019-04-06T01:24:35.808Z,95.41
2019-04-06T01:24:36.409Z,95.41
2019-04-06T01:25:30.887Z,95.08
2019-04-06T01:25:31.484Z,95.41
2019-04-06T01:25:32.083Z,95.32
2019-04-06T01:25:32.684Z,95.32
2019-04-06T01:25:33.284Z,95.41
2019-04-06T01:25:33.884Z,95.03
2019-04-06T01:25:34.483Z,95.41
2019-04-06T01:25:35.167Z,95.22
2019-04-06T01:26:28.538Z,95.70
2019-04-06T01:26:29.136Z,95.70
2019-04-06T01:26:29.761Z,95.70
2019-04-06T01:26:30.336Z,95.70
2019-04-06T01:26:30.964Z,95.79
2019-04-06T01:26:31.538Z,95.46
2019-04-06T01:26:32.136Z,95.60
2019-04-06T01:26:32.735Z,95.70
2019-04-06T01:27:26.222Z,95.41
2019-04-06T01:27:26.788Z,95.32
2019-04-06T01:27:27.388Z,95.27
2019-04-06T01:27:27.989Z,95.03
2019-04-06T01:27:28.591Z,95.41
2019-04-06T01:27:29.193Z,95.03
2019-04-06T01:27:29.787Z,95.32
2019-04-06T01:27:30.416Z,95.03
2019-04-06T01:28:23.843Z,95.12
2019-04-06T01:28:24.442Z,95.32
2019-04-06T01:28:25.039Z,95.12
2019-04-06T01:28:25.639Z,95.12
2019-04-06T01:28:26.239Z,95.32
2019-04-06T01:28:26.839Z,95.12
2019-04-06T01:28:27.438Z,95.32
2019-04-06T01:28:28.037Z,95.32
2019-04-06T01:29:22.518Z,95.03
2019-04-06T01:29:23.115Z,95.41
2019-04-06T01:29:23.715Z,95.03
2019-04-06T01:29:24.319Z,94.74
2019-04-06T01:29:24.914Z,94.93
2019-04-06T01:29:25.513Z,95.12
2019-04-06T01:29:26.118Z,94.65
2019-04-06T01:29:26.715Z,94.74
2019-04-06T01:30:21.194Z,95.41
2019-04-06T01:30:21.790Z,94.93
2019-04-06T01:30:22.389Z,94.84
2019-04-06T01:30:23.060Z,94.93
2019-04-06T01:30:23.596Z,95.41
2019-04-06T01:30:24.189Z,95.36
2019-04-06T01:30:24.822Z,95.22
2019-04-06T01:30:25.389Z,94.84
2019-04-06T01:31:18.847Z,95.03
2019-04-06T01:31:19.443Z,94.65
2019-04-06T01:31:20.047Z,95.03
2019-04-06T01:31:20.762Z,95.03
2019-04-06T01:31:21.242Z,94.65
2019-04-06T01:31:21.843Z,94.93
2019-04-06T01:31:22.440Z,95.03
2019-04-06T01:31:23.043Z,95.32
2019-04-06T01:32:17.521Z,95.79
2019-04-06T01:32:18.119Z,95.32
2019-04-06T01:32:18.718Z,95.79
2019-04-06T01:32:19.317Z,95.70
2019-04-06T01:32:19.918Z,95.12
2019-04-06T01:32:20.558Z,95.60
2019-04-06T01:32:21.118Z,95.60
2019-04-06T01:32:21.718Z,95.79
2019-04-06T01:33:15.203Z,96.36
2019-04-06T01:33:15.849Z,96.08
2019-04-06T01:33:16.370Z,96.36
2019-04-06T01:33:17.005Z,96.08
2019-04-06T01:33:17.574Z,96.08
2019-04-06T01:33:18.168Z,96.08
2019-04-06T01:33:18.768Z,96.36
2019-04-06T01:33:19.374Z,96.17
2019-04-06T01:34:12.829Z,96.17
2019-04-06T01:34:13.421Z,96.17
2019-04-06T01:34:14.022Z,96.32
2019-04-06T01:34:14.621Z,96.27
2019-04-06T01:34:15.221Z,95.89
2019-04-06T01:34:15.820Z,96.17
2019-04-06T01:34:16.483Z,96.27
2019-04-06T01:34:17.022Z,96.17
2019-04-06T01:35:10.533Z,96.17
2019-04-06T01:35:11.074Z,96.27
2019-04-06T01:35:11.676Z,96.17
2019-04-06T01:35:12.273Z,96.27
2019-04-06T01:35:12.873Z,96.17
2019-04-06T01:35:13.474Z,96.17
2019-04-06T01:35:14.113Z,96.17
2019-04-06T01:35:14.673Z,96.17
2019-04-06T01:36:09.153Z,95.22
2019-04-06T01:36:09.749Z,95.79
2019-04-06T01:36:10.350Z,95.60
2019-04-06T01:36:10.950Z,95.70
2019-04-06T01:36:11.547Z,95.60
2019-04-06T01:36:12.148Z,95.79
2019-04-06T01:36:12.804Z,95.60
2019-04-06T01:36:13.348Z,95.51
2019-04-06T01:37:06.804Z,95.03
2019-04-06T01:37:07.401Z,95.22
2019-04-06T01:37:08.001Z,95.32
2019-04-06T01:37:08.605Z,95.32
2019-04-06T01:37:09.200Z,95.41
2019-04-06T01:37:09.800Z,95.32
2019-04-06T01:37:10.400Z,94.84
2019-04-06T01:37:11.000Z,94.93
2019-04-06T01:38:04.456Z,95.22
2019-04-06T01:38:05.052Z,95.22
2019-04-06T01:38:05.654Z,95.22
2019-04-06T01:38:06.253Z,95.60
2019-04-06T01:38:06.852Z,95.32
2019-04-06T01:38:07.452Z,95.79
2019-04-06T01:38:08.052Z,95.32
2019-04-06T01:38:08.653Z,95.32
2019-04-06T01:39:02.131Z,96.08
2019-04-06T01:39:02.704Z,96.08
2019-04-06T01:39:03.305Z,95.98
2019-04-06T01:39:03.903Z,96.08
2019-04-06T01:39:04.503Z,96.17
2019-04-06T01:39:05.103Z,96.27
2019-04-06T01:39:05.703Z,96.36
2019-04-06T01:39:06.303Z,95.79
2019-04-06T01:40:00.783Z,95.79
2019-04-06T01:40:01.379Z,95.41
2019-04-06T01:40:02.014Z,95.46
2019-04-06T01:40:02.579Z,95.51
2019-04-06T01:40:03.185Z,95.41
2019-04-06T01:40:03.778Z,95.98
2019-04-06T01:40:04.378Z,95.70
2019-04-06T01:40:04.981Z,95.70
2019-04-06T01:40:59.462Z,95.41
2019-04-06T01:41:00.054Z,95.51
2019-04-06T01:41:00.655Z,95.51
2019-04-06T01:41:01.253Z,95.79
2019-04-06T01:41:01.856Z,95.32
2019-04-06T01:41:02.454Z,95.89
2019-04-06T01:41:03.057Z,95.89
2019-04-06T01:41:03.657Z,95.98
2019-04-06T01:41:58.133Z,96.08
2019-04-06T01:41:58.731Z,96.08
2019-04-06T01:41:59.330Z,95.98
2019-04-06T01:41:59.931Z,96.08
2019-04-06T01:42:00.530Z,96.08
2019-04-06T01:42:01.130Z,95.98
2019-04-06T01:42:01.739Z,95.79
2019-04-06T01:42:02.329Z,95.79
2019-04-06T01:42:56.810Z,95.32
2019-04-06T01:42:57.407Z,95.32
2019-04-06T01:42:58.006Z,95.51
2019-04-06T01:42:58.606Z,95.51
2019-04-06T01:42:59.251Z,95.51
2019-04-06T01:42:59.806Z,95.41
2019-04-06T01:43:00.408Z,95.41
2019-04-06T01:43:01.006Z,95.79
2019-04-06T01:43:55.518Z,95.98
2019-04-06T01:43:56.081Z,96.08
2019-04-06T01:43:56.763Z,95.79
2019-04-06T01:43:57.282Z,96.08
2019-04-06T01:43:57.920Z,95.98
2019-04-06T01:43:58.482Z,96.27
2019-04-06T01:43:59.081Z,95.98
2019-04-06T01:43:59.681Z,96.08
2019-04-06T01:44:53.137Z,95.98
2019-04-06T01:44:53.734Z,96.08
2019-04-06T01:44:54.344Z,96.08
2019-04-06T01:44:54.934Z,96.08
2019-04-06T01:44:55.536Z,95.79
2019-04-06T01:44:56.133Z,95.79
2019-04-06T01:44:56.733Z,96.08
2019-04-06T01:44:57.338Z,96.08
2019-04-06T01:45:51.813Z,95.98
2019-04-06T01:45:52.410Z,96.03
2019-04-06T01:45:53.009Z,95.98
2019-04-06T01:45:53.608Z,96.17
2019-04-06T01:45:54.208Z,96.17
2019-04-06T01:45:54.812Z,95.98
2019-04-06T01:45:55.409Z,95.94
2019-04-06T01:45:56.033Z,96.08
2019-04-06T01:46:49.465Z,95.94
2019-04-06T01:46:50.062Z,96.03
2019-04-06T01:46:50.669Z,96.03
2019-04-06T01:46:51.262Z,96.22
2019-04-06T01:46:51.861Z,96.12
2019-04-06T01:46:52.461Z,96.22
2019-04-06T01:46:53.062Z,96.03
2019-04-06T01:46:53.785Z,96.03
2019-04-06T01:47:47.117Z,96.70
2019-04-06T01:47:47.732Z,96.70
2019-04-06T01:47:48.313Z,96.70
2019-04-06T01:47:48.913Z,97.08
2019-04-06T01:47:49.513Z,96.98
2019-04-06T01:47:50.169Z,96.70
2019-04-06T01:47:50.713Z,96.80
2019-04-06T01:47:51.311Z,97.08
2019-04-06T01:48:45.793Z,96.89
2019-04-06T01:48:46.390Z,96.89
2019-04-06T01:48:46.989Z,97.17
2019-04-06T01:48:47.587Z,96.89
2019-04-06T01:48:48.188Z,96.89
2019-04-06T01:48:48.790Z,96.80
2019-04-06T01:48:49.388Z,97.36
2019-04-06T01:48:50.031Z,96.89
2019-04-06T01:49:43.466Z,96.98
2019-04-06T01:49:44.041Z,96.51
2019-04-06T01:49:44.644Z,96.98
2019-04-06T01:49:45.243Z,96.80
2019-04-06T01:49:45.840Z,96.80
2019-04-06T01:49:46.442Z,97.36
2019-04-06T01:49:47.040Z,97.08
2019-04-06T01:49:47.641Z,97.46
2019-04-06T01:50:42.119Z,97.46
2019-04-06T01:50:42.717Z,97.46
2019-04-06T01:50:43.316Z,97.46
2019-04-06T01:50:43.916Z,97.46
2019-04-06T01:50:44.525Z,97.56
2019-04-06T01:50:45.117Z,96.89
2019-04-06T01:50:45.717Z,97.36
2019-04-06T01:50:46.318Z,97.46
2019-04-06T01:51:39.771Z,97.65
2019-04-06T01:51:40.368Z,97.27
2019-04-06T01:51:41.031Z,97.56
2019-04-06T01:51:41.570Z,97.36
2019-04-06T01:51:42.170Z,97.65
2019-04-06T01:51:42.775Z,97.36
2019-04-06T01:51:43.368Z,97.36
2019-04-06T01:51:43.968Z,97.27
2019-04-06T01:52:37.424Z,97.27
2019-04-06T01:52:38.022Z,97.56
2019-04-06T01:52:38.711Z,96.98
2019-04-06T01:52:39.221Z,97.27
2019-04-06T01:52:39.818Z,97.27
2019-04-06T01:52:40.418Z,97.56
2019-04-06T01:52:41.028Z,97.56
2019-04-06T01:52:41.618Z,97.17
2019-04-06T01:53:35.076Z,97.75
2019-04-06T01:53:35.672Z,97.65
2019-04-06T01:53:36.314Z,97.75
2019-04-06T01:53:36.871Z,97.75
2019-04-06T01:53:37.471Z,97.75
2019-04-06T01:53:38.071Z,97.65
2019-04-06T01:53:38.676Z,97.75
2019-04-06T01:53:39.272Z,97.75
2019-04-06T01:54:32.749Z,98.03
2019-04-06T01:54:33.336Z,98.03
2019-04-06T01:54:33.923Z,97.94
2019-04-06T01:54:34.523Z,98.22
2019-04-06T01:54:35.124Z,98.22
2019-04-06T01:54:35.726Z,98.03
2019-04-06T01:54:36.324Z,98.13
2019-04-06T01:54:36.922Z,98.03
2019-04-06T01:55:31.415Z,98.41
2019-04-06T01:55:31.999Z,98.03
2019-04-06T01:55:32.597Z,98.13
2019-04-06T01:55:33.223Z,98.32
2019-04-06T01:55:33.801Z,98.32
2019-04-06T01:55:34.397Z,97.27
2019-04-06T01:55:34.999Z,98.13
2019-04-06T01:55:35.598Z,97.36
2019-04-06T01:56:30.082Z,98.08
2019-04-06T01:56:30.673Z,97.84
2019-04-06T01:56:31.274Z,97.84
2019-04-06T01:56:31.876Z,97.94
2019-04-06T01:56:32.473Z,98.03
2019-04-06T01:56:33.072Z,97.94
2019-04-06T01:56:33.673Z,98.03
2019-04-06T01:56:34.271Z,98.03
2019-04-06T01:57:28.755Z,98.18
2019-04-06T01:57:29.365Z,98.18
2019-04-06T01:57:29.951Z,98.08
2019-04-06T01:57:30.550Z,97.99
2019-04-06T01:57:31.150Z,97.94
2019-04-06T01:57:31.751Z,98.22
2019-04-06T01:57:32.358Z,98.08
2019-04-06T01:57:32.954Z,98.13
2019-04-06T01:58:26.413Z,97.70
2019-04-06T01:58:27.011Z,97.36
2019-04-06T01:58:27.606Z,97.75
2019-04-06T01:58:28.202Z,97.13
2019-04-06T01:58:28.801Z,97.31
2019-04-06T01:58:29.402Z,97.36
2019-04-06T01:58:30.001Z,97.27
2019-04-06T01:58:30.602Z,97.27
2019-04-06T01:59:24.088Z,97.89
2019-04-06T01:59:24.657Z,97.89
2019-04-06T01:59:25.255Z,97.94
2019-04-06T01:59:25.859Z,97.94
2019-04-06T01:59:26.453Z,97.22
2019-04-06T01:59:27.061Z,98.08
2019-04-06T01:59:27.653Z,98.03
2019-04-06T01:59:28.252Z,98.18
2019-04-06T02:00:22.740Z,97.70
2019-04-06T02:00:23.330Z,97.70
2019-04-06T02:00:23.928Z,97.75
2019-04-06T02:00:24.529Z,97.79
2019-04-06T02:00:25.128Z,97.75